createdAt,value
2019-05-28T00:02:01.731Z,7.40
2019-05-28T00:04:31.276Z,6.75
2019-05-28T00:07:00.174Z,6.83
2019-05-28T00:09:29.130Z,6.83
2019-05-28T00:11:58.090Z,7.40
2019-05-28T00:14:27.230Z,6.90
2019-05-28T00:16:56.111Z,7.40
2019-05-28T00:19:24.945Z,6.72
2019-05-28T00:21:53.867Z,6.65
2019-05-28T00:24:22.710Z,6.45
2019-05-28T00:26:51.548Z,7.00
2019-05-28T00:29:20.563Z,6.30
2019-05-28T00:31:49.448Z,6.65
2019-05-28T00:34:18.339Z,6.90
2019-05-28T00:36:47.194Z,6.60
2019-05-28T00:39:16.063Z,7.58
2019-05-28T00:41:44.954Z,6.70
2019-05-28T00:44:13.748Z,6.53
2019-05-28T00:46:42.704Z,7.05
2019-05-28T00:49:11.706Z,7.22
2019-05-28T00:51:42.337Z,7.53
2019-05-28T00:54:19.703Z,7.30
2019-05-28T00:56:50.284Z,7.93
2019-05-28T00:59:20.749Z,7.35
2019-05-28T01:01:49.583Z,7.83
2019-05-28T01:04:18.481Z,8.13
2019-05-28T01:06:47.338Z,8.17
2019-05-28T01:09:16.180Z,8.40
2019-05-28T01:11:45.076Z,8.60
2019-05-28T01:14:13.939Z,8.85
2019-05-28T01:16:42.891Z,8.20
2019-05-28T01:19:11.715Z,9.15
2019-05-28T01:21:42.534Z,8.80
2019-05-28T01:24:11.263Z,8.20
2019-05-28T01:26:40.094Z,9.78
2019-05-28T01:29:08.944Z,8.28
2019-05-28T01:31:37.875Z,8.20
2019-05-28T01:34:06.705Z,8.28
2019-05-28T01:36:35.566Z,7.83
2019-05-28T01:39:06.079Z,8.48
2019-05-28T01:41:35.017Z,8.90
2019-05-28T01:44:03.966Z,8.00
2019-05-28T01:46:32.811Z,9.10
2019-05-28T01:49:01.703Z,9.10
2019-05-28T01:51:30.575Z,9.50
2019-05-28T01:53:59.413Z,10.18
2019-05-28T01:56:28.239Z,9.08
2019-05-28T01:58:57.233Z,8.53
2019-05-28T02:01:26.051Z,8.58
2019-05-28T02:03:54.862Z,9.18
2019-05-28T02:06:23.776Z,8.13
2019-05-28T02:08:52.770Z,7.80
2019-05-28T02:11:21.643Z,7.42
2019-05-28T02:13:50.509Z,6.42
2019-05-28T02:16:19.392Z,6.80
2019-05-28T02:18:48.240Z,6.90
2019-05-28T02:21:17.136Z,6.28
2019-05-28T02:23:46.074Z,5.40
2019-05-28T02:26:14.896Z,5.97
2019-05-28T02:28:43.771Z,5.83
2019-05-28T02:31:26.936Z,6.10
2019-05-28T02:33:43.068Z,6.20
2019-05-28T02:36:11.996Z,5.50
2019-05-28T02:38:40.803Z,5.80
2019-05-28T02:41:09.642Z,5.30
2019-05-28T02:43:38.545Z,5.75
2019-05-28T02:46:07.577Z,5.70
2019-05-28T02:48:36.545Z,5.50
2019-05-28T02:51:06.061Z,5.20
2019-05-28T02:53:35.121Z,5.10
2019-05-28T02:56:04.834Z,5.90
2019-05-28T02:58:35.776Z,5.70
2019-05-28T03:01:07.104Z,5.97
2019-05-28T03:03:36.223Z,5.47
2019-05-28T03:06:07.276Z,5.60
2019-05-28T03:08:36.312Z,4.80
2019-05-28T03:11:05.581Z,5.03
2019-05-28T03:13:34.553Z,6.03
2019-05-28T03:16:06.480Z,5.75
2019-05-28T03:18:38.885Z,5.50
2019-05-28T03:21:09.790Z,6.30
2019-05-28T03:23:41.026Z,5.62
2019-05-28T03:26:10.085Z,4.90
2019-05-28T03:28:39.215Z,5.22
2019-05-28T03:31:08.485Z,5.12
2019-05-28T03:33:37.487Z,5.53
2019-05-28T03:36:09.601Z,4.80
2019-05-28T03:38:40.033Z,5.17
2019-05-28T03:41:08.989Z,4.92
2019-05-28T03:43:37.947Z,5.12
2019-05-28T03:46:06.947Z,5.25
2019-05-28T03:48:35.939Z,5.65
2019-05-28T03:51:05.075Z,4.70
2019-05-28T03:53:34.041Z,5.67
2019-05-28T03:56:03.086Z,5.60
2019-05-28T03:58:32.132Z,5.50
2019-05-28T04:01:01.142Z,5.78
2019-05-28T04:03:30.128Z,5.53
2019-05-28T04:05:58.998Z,5.30
2019-05-28T04:08:28.035Z,5.47
2019-05-28T04:10:56.907Z,5.00
2019-05-28T04:13:25.984Z,5.37
2019-05-28T04:15:54.900Z,5.42
2019-05-28T04:18:23.895Z,5.62
2019-05-28T04:20:52.815Z,5.20
2019-05-28T04:23:21.742Z,5.87
2019-05-28T04:25:50.641Z,6.05
2019-05-28T04:28:19.762Z,5.80
2019-05-28T04:30:48.637Z,6.15
2019-05-28T04:33:17.469Z,5.37
2019-05-28T04:35:47.926Z,5.62
2019-05-28T04:38:16.812Z,6.10
2019-05-28T04:40:45.650Z,5.17
2019-05-28T04:43:14.593Z,6.35
2019-05-28T04:45:43.451Z,5.80
2019-05-28T04:48:12.274Z,5.90
2019-05-28T04:50:41.255Z,5.90
2019-05-28T04:53:10.120Z,5.17
2019-05-28T04:55:39.050Z,4.90
2019-05-28T04:58:07.902Z,5.60
2019-05-28T05:00:36.845Z,6.37
2019-05-28T05:03:05.783Z,6.35
2019-05-28T05:05:34.768Z,5.60
2019-05-28T05:08:03.672Z,5.83
2019-05-28T05:10:32.620Z,5.78
2019-05-28T05:13:04.440Z,5.40
2019-05-28T05:15:33.512Z,7.25
2019-05-28T05:18:02.462Z,6.10
2019-05-28T05:20:31.368Z,5.20
2019-05-28T05:23:00.254Z,5.37
2019-05-28T05:25:29.267Z,6.15
2019-05-28T05:27:58.278Z,5.50
2019-05-28T05:30:27.219Z,5.47
2019-05-28T05:32:56.067Z,5.33
2019-05-28T05:35:24.921Z,5.45
2019-05-28T05:37:53.930Z,5.00
2019-05-28T05:40:24.135Z,5.10
2019-05-28T05:42:53.284Z,5.47
2019-05-28T05:45:22.239Z,5.62
2019-05-28T05:47:51.118Z,5.42
2019-05-28T05:50:20.027Z,5.65
2019-05-28T05:52:48.951Z,5.30
2019-05-28T05:55:17.981Z,5.58
2019-05-28T05:57:47.064Z,5.30
2019-05-28T06:00:17.812Z,5.50
2019-05-28T06:02:46.796Z,5.35
2019-05-28T06:05:15.796Z,5.30
2019-05-28T06:07:44.637Z,5.10
2019-05-28T06:10:14.458Z,5.35
2019-05-28T06:12:43.428Z,5.53
2019-05-28T06:15:12.980Z,5.40
2019-05-28T06:17:42.446Z,5.37
2019-05-28T06:20:12.036Z,5.62
2019-05-28T06:22:40.880Z,5.80
2019-05-28T06:25:09.857Z,6.60
2019-05-28T06:27:38.664Z,5.28
2019-05-28T06:30:08.299Z,5.60
2019-05-28T06:32:38.454Z,4.95
2019-05-28T06:35:08.808Z,5.30
2019-05-28T06:37:38.084Z,4.25
2019-05-28T06:40:07.493Z,4.33
2019-05-28T06:42:39.278Z,4.10
2019-05-28T06:45:08.077Z,4.60
2019-05-28T06:47:37.154Z,4.00
2019-05-28T06:50:07.442Z,4.37
2019-05-28T06:53:00.405Z,4.50
2019-05-28T06:55:30.302Z,3.80
2019-05-28T06:58:02.314Z,3.70
2019-05-28T07:00:30.694Z,4.37
2019-05-28T07:03:00.049Z,4.80
2019-05-28T07:05:29.063Z,4.50
2019-05-28T07:07:57.951Z,4.80
2019-05-28T07:10:27.175Z,4.45
2019-05-28T07:12:56.063Z,4.90
2019-05-28T07:15:32.585Z,4.53
2019-05-28T07:18:01.587Z,4.03
2019-05-28T07:20:30.729Z,4.30
2019-05-28T07:22:59.545Z,3.80
2019-05-28T07:25:28.396Z,3.90
2019-05-28T07:28:10.596Z,4.85
2019-05-28T07:30:27.974Z,4.70
2019-05-28T07:32:56.868Z,4.17
2019-05-28T07:35:25.945Z,4.35
2019-05-28T07:37:54.888Z,5.00
2019-05-28T07:40:31.458Z,3.60
2019-05-28T07:42:54.617Z,4.50
2019-05-28T07:45:23.594Z,4.00
2019-05-28T07:47:52.434Z,3.70
2019-05-28T07:50:21.616Z,5.00
2019-05-28T07:52:50.554Z,4.22
2019-05-28T07:55:19.647Z,4.80
2019-05-28T07:57:48.807Z,5.37
2019-05-28T08:00:21.399Z,4.47
2019-05-28T08:02:50.394Z,5.15
2019-05-28T08:05:19.416Z,4.85
2019-05-28T08:07:48.334Z,4.80
2019-05-28T08:10:17.346Z,4.37
2019-05-28T08:12:46.341Z,5.05
2019-05-28T08:15:15.374Z,4.78
2019-05-28T08:17:44.226Z,4.17
2019-05-28T08:20:13.465Z,4.50
2019-05-28T08:22:43.275Z,4.40
2019-05-28T08:25:27.397Z,4.60
2019-05-28T08:27:43.180Z,4.65
2019-05-28T08:30:12.297Z,4.28
2019-05-28T08:32:41.350Z,4.67
2019-05-28T08:35:10.543Z,5.13
2019-05-28T08:37:39.436Z,4.47
2019-05-28T08:40:09.072Z,5.03
2019-05-28T08:42:38.091Z,5.83
2019-05-28T08:45:07.533Z,4.53
2019-05-28T08:47:36.468Z,5.20
2019-05-28T08:50:05.914Z,5.20
2019-05-28T08:52:34.812Z,5.40
2019-05-28T08:55:04.053Z,4.00
2019-05-28T08:57:32.966Z,4.45
2019-05-28T09:00:01.970Z,4.90
2019-05-28T09:02:30.946Z,4.70
2019-05-28T09:04:59.789Z,4.40
2019-05-28T09:07:28.660Z,4.30
2019-05-28T09:09:57.447Z,4.50
2019-05-28T09:12:26.278Z,4.08
2019-05-28T09:14:56.583Z,4.22
2019-05-28T09:17:25.716Z,4.42
2019-05-28T09:19:54.660Z,3.80
2019-05-28T09:22:26.126Z,4.65
2019-05-28T09:24:54.205Z,3.70
2019-05-28T09:27:23.138Z,4.30
2019-05-28T09:29:55.210Z,3.37
2019-05-28T09:32:22.622Z,3.80
2019-05-28T09:34:51.513Z,3.02
2019-05-28T09:37:20.543Z,3.30
2019-05-28T09:39:49.408Z,3.10
2019-05-28T09:42:18.312Z,3.50
2019-05-28T09:44:47.166Z,3.30
2019-05-28T09:47:16.025Z,2.90
2019-05-28T09:49:44.870Z,3.50
2019-05-28T09:52:13.769Z,3.20
2019-05-28T09:54:47.824Z,4.35
2019-05-28T09:57:16.641Z,3.20
2019-05-28T09:59:45.588Z,3.30
2019-05-28T10:02:14.623Z,2.98
2019-05-28T10:04:49.102Z,3.60
2019-05-28T10:07:14.259Z,2.90
2019-05-28T10:09:43.475Z,3.12
2019-05-28T10:12:12.428Z,4.03
2019-05-28T10:14:44.208Z,4.28
2019-05-28T10:17:12.007Z,3.20
2019-05-28T10:19:41.065Z,4.12
2019-05-28T10:22:10.088Z,4.22
2019-05-28T10:24:39.145Z,4.40
2019-05-28T10:27:07.977Z,3.80
2019-05-28T10:29:36.848Z,3.65
2019-05-28T10:32:05.813Z,3.47
2019-05-28T10:34:34.640Z,3.30
2019-05-28T10:37:03.734Z,3.50
2019-05-28T10:39:32.837Z,3.02
2019-05-28T10:42:01.979Z,3.33
2019-05-28T10:44:30.876Z,3.42
2019-05-28T10:46:59.765Z,3.80
2019-05-28T10:49:28.804Z,3.25
2019-05-28T10:51:57.636Z,3.50
2019-05-28T10:54:26.566Z,3.17
2019-05-28T10:56:55.367Z,2.90
2019-05-28T10:59:24.297Z,3.65
2019-05-28T11:01:53.266Z,3.30
2019-05-28T11:04:22.351Z,2.83
2019-05-28T11:06:52.345Z,3.15
2019-05-28T11:09:21.403Z,3.47
2019-05-28T11:11:50.511Z,3.20
2019-05-28T11:14:19.366Z,3.20
2019-05-28T11:16:48.421Z,3.45
2019-05-28T11:19:17.375Z,3.08
2019-05-28T11:21:46.204Z,3.10
2019-05-28T11:24:15.247Z,3.10
2019-05-28T11:26:44.349Z,3.10
2019-05-28T11:29:13.415Z,3.72
2019-05-28T11:31:42.187Z,3.30
2019-05-28T11:34:11.096Z,3.60
2019-05-28T11:36:40.114Z,3.80
2019-05-28T11:39:10.385Z,3.10
2019-05-28T11:41:42.290Z,3.10
2019-05-28T11:44:09.862Z,3.42
2019-05-28T11:46:38.720Z,3.45
2019-05-28T11:49:07.614Z,3.10
2019-05-28T11:51:36.583Z,3.17
2019-05-28T11:54:05.584Z,3.40
2019-05-28T11:56:34.435Z,3.73
2019-05-28T11:59:03.324Z,3.30
2019-05-28T12:01:35.039Z,3.60
2019-05-28T12:04:03.269Z,3.47
2019-05-28T12:06:37.968Z,2.75
2019-05-28T12:09:02.759Z,2.97
2019-05-28T12:11:31.704Z,3.20
2019-05-28T12:14:00.567Z,2.90
2019-05-28T12:16:29.399Z,3.02
2019-05-28T12:18:58.591Z,3.70
2019-05-28T12:21:27.677Z,2.90
2019-05-28T12:23:56.573Z,3.35
2019-05-28T12:26:25.699Z,3.80
2019-05-28T12:28:54.798Z,3.70
2019-05-28T12:31:23.803Z,4.30
2019-05-28T12:33:52.934Z,3.55
2019-05-28T12:36:21.819Z,3.77
2019-05-28T12:38:50.668Z,5.17
2019-05-28T12:41:19.636Z,3.40
2019-05-28T12:43:48.622Z,3.22
2019-05-28T12:46:17.794Z,3.90
2019-05-28T12:48:46.818Z,5.17
2019-05-28T12:51:15.804Z,3.45
2019-05-28T12:53:50.393Z,4.03
2019-05-28T12:56:15.217Z,3.70
2019-05-28T12:58:44.158Z,4.08
2019-05-28T13:01:13.139Z,3.45
2019-05-28T13:03:42.327Z,4.00
2019-05-28T13:06:11.636Z,3.43
2019-05-28T13:08:40.440Z,4.30
2019-05-28T13:11:09.240Z,3.73
2019-05-28T13:13:38.222Z,4.47
2019-05-28T13:16:07.060Z,3.58
2019-05-28T13:18:36.003Z,3.60
2019-05-28T13:21:04.856Z,3.00
2019-05-28T13:23:33.726Z,3.33
2019-05-28T13:26:02.644Z,3.30
2019-05-28T13:28:31.499Z,4.10
2019-05-28T13:31:00.473Z,3.50
2019-05-28T13:33:29.305Z,3.10
2019-05-28T13:35:58.690Z,3.20
2019-05-28T13:38:27.951Z,3.70
2019-05-28T13:40:56.919Z,3.35
2019-05-28T13:43:25.834Z,3.20
2019-05-28T13:45:54.876Z,2.90
2019-05-28T13:48:23.773Z,3.00
2019-05-28T13:50:52.667Z,2.90
2019-05-28T13:53:21.598Z,2.52
2019-05-28T13:55:50.449Z,2.87
2019-05-28T13:58:19.523Z,3.65
2019-05-28T14:00:48.501Z,2.70
2019-05-28T14:03:17.439Z,2.40
2019-05-28T14:05:46.392Z,2.40
2019-05-28T14:08:15.305Z,2.50
2019-05-28T14:10:44.310Z,2.70
2019-05-28T14:13:13.197Z,3.25
2019-05-28T14:15:42.228Z,2.98
2019-05-28T14:18:11.230Z,3.67
2019-05-28T14:20:40.140Z,2.90
2019-05-28T14:23:09.209Z,2.83
2019-05-28T14:25:38.106Z,2.98
2019-05-28T14:28:07.309Z,2.47
2019-05-28T14:30:36.935Z,2.90
2019-05-28T14:33:05.919Z,3.20
2019-05-28T14:35:34.927Z,2.85
2019-05-28T14:38:03.853Z,2.80
2019-05-28T14:40:33.485Z,4.20
2019-05-28T14:43:02.854Z,3.80
2019-05-28T14:45:31.858Z,2.60
2019-05-28T14:48:00.817Z,2.52
2019-05-28T14:50:29.778Z,2.40
2019-05-28T14:52:58.773Z,2.60
2019-05-28T14:55:27.921Z,2.60
2019-05-28T14:57:56.956Z,2.67
2019-05-28T15:00:26.283Z,2.65
2019-05-28T15:02:55.109Z,2.62
2019-05-28T15:05:24.278Z,3.50
2019-05-28T15:07:53.326Z,3.00
2019-05-28T15:10:23.730Z,2.95
2019-05-28T15:12:52.741Z,2.47
2019-05-28T15:15:35.160Z,2.90
2019-05-28T15:17:52.649Z,3.00
2019-05-28T15:20:21.859Z,2.30
2019-05-28T15:22:51.160Z,2.25
2019-05-28T15:25:20.331Z,2.30
2019-05-28T15:27:49.267Z,4.20
2019-05-28T15:30:18.738Z,3.20
2019-05-28T15:32:47.632Z,2.50
2019-05-28T15:35:16.896Z,2.50
2019-05-28T15:37:45.898Z,2.20
2019-05-28T15:40:15.099Z,2.40
2019-05-28T15:42:44.427Z,3.08
2019-05-28T15:45:13.839Z,2.70
2019-05-28T15:47:44.979Z,2.40
2019-05-28T15:50:14.553Z,2.30
2019-05-28T15:52:43.386Z,2.30
2019-05-28T15:55:12.539Z,2.10
2019-05-28T15:57:41.934Z,2.42
2019-05-28T16:00:14.487Z,2.20
2019-05-28T16:02:43.774Z,1.80
2019-05-28T16:05:13.187Z,2.33
2019-05-28T16:07:42.202Z,2.08
2019-05-28T16:10:11.605Z,2.00
2019-05-28T16:12:40.517Z,2.30
2019-05-28T16:15:09.977Z,1.95
2019-05-28T16:17:38.876Z,2.42
2019-05-28T16:20:08.717Z,2.00
2019-05-28T16:22:37.730Z,1.82
2019-05-28T16:25:06.885Z,1.80
2019-05-28T16:27:35.784Z,2.00
2019-05-28T16:30:05.971Z,1.90
2019-05-28T16:32:35.151Z,2.10
2019-05-28T16:35:04.380Z,2.10
2019-05-28T16:37:33.460Z,1.90
2019-05-28T16:40:14.450Z,1.80
2019-05-28T16:42:32.888Z,1.60
2019-05-28T16:45:01.736Z,1.90
2019-05-28T16:47:30.674Z,1.90
2019-05-28T16:49:59.766Z,1.80
2019-05-28T16:52:28.657Z,2.02
2019-05-28T16:54:57.561Z,1.87
2019-05-28T16:57:26.466Z,1.50
2019-05-28T16:59:55.415Z,1.45
2019-05-28T17:02:24.338Z,1.90
2019-05-28T17:04:53.217Z,1.80
2019-05-28T17:07:22.046Z,1.70
2019-05-28T17:09:51.007Z,1.85
2019-05-28T17:12:20.025Z,1.50
2019-05-28T17:14:48.980Z,1.73
2019-05-28T17:17:17.982Z,1.98
2019-05-28T17:19:46.958Z,1.70
2019-05-28T17:22:15.906Z,2.10
2019-05-28T17:24:45.064Z,2.60
2019-05-28T17:27:13.966Z,1.80
2019-05-28T17:29:43.343Z,2.85
2019-05-28T17:32:12.566Z,1.90
2019-05-28T17:34:41.642Z,2.02
2019-05-28T17:37:11.386Z,1.85
2019-05-28T17:39:40.678Z,1.83
2019-05-28T17:42:09.732Z,1.90
2019-05-28T17:44:40.957Z,2.20
2019-05-28T17:47:10.109Z,2.30
2019-05-28T17:49:39.079Z,1.65
2019-05-28T17:52:08.649Z,2.10
2019-05-28T17:54:37.564Z,1.53
2019-05-28T17:57:06.533Z,1.90
2019-05-28T17:59:35.577Z,1.90
2019-05-28T18:02:04.872Z,1.80
2019-05-28T18:04:33.771Z,2.50
2019-05-28T18:07:02.629Z,1.42
2019-05-28T18:09:31.533Z,1.42
2019-05-28T18:12:00.514Z,1.95
2019-05-28T18:14:29.438Z,1.80
2019-05-28T18:16:58.490Z,1.80
2019-05-28T18:19:27.345Z,1.60
2019-05-28T18:21:56.237Z,1.65
2019-05-28T18:24:29.965Z,1.70
2019-05-28T18:27:03.736Z,2.40
2019-05-28T18:29:32.667Z,2.05
2019-05-28T18:32:01.708Z,1.50
2019-05-28T18:34:35.507Z,1.55
2019-05-28T18:37:04.521Z,1.80
2019-05-28T18:39:33.492Z,1.82
2019-05-28T18:42:02.621Z,1.90
2019-05-28T18:44:33.197Z,1.82
2019-05-28T18:47:02.036Z,1.32
2019-05-28T18:49:32.138Z,1.40
2019-05-28T18:52:01.125Z,1.75
2019-05-28T18:54:30.098Z,1.62
2019-05-28T18:56:58.967Z,1.90
2019-05-28T18:59:28.006Z,1.70
2019-05-28T19:01:59.210Z,1.62
2019-05-28T19:04:27.668Z,1.80
2019-05-28T19:06:56.699Z,1.60
2019-05-28T19:09:25.633Z,1.65
2019-05-28T19:11:54.565Z,1.80
2019-05-28T19:14:23.628Z,1.70
2019-05-28T19:16:52.761Z,2.00
2019-05-28T19:19:21.869Z,1.90
2019-05-28T19:21:50.935Z,2.40
2019-05-28T19:24:19.825Z,2.22
2019-05-28T19:26:48.717Z,1.90
2019-05-28T19:29:17.702Z,1.82
2019-05-28T19:31:46.531Z,1.70
2019-05-28T19:34:15.957Z,1.90
2019-05-28T19:36:45.381Z,2.33
2019-05-28T19:39:14.977Z,1.90
2019-05-28T19:41:53.702Z,2.12
2019-05-28T19:44:14.896Z,1.40
2019-05-28T19:46:43.815Z,1.60
2019-05-28T19:49:12.717Z,1.62
2019-05-28T19:51:41.607Z,1.40
2019-05-28T19:54:10.495Z,1.60
2019-05-28T19:56:39.517Z,1.40
2019-05-28T19:59:08.351Z,1.70
2019-05-28T20:01:37.341Z,1.85
2019-05-28T20:04:06.455Z,2.22
2019-05-28T20:06:35.474Z,2.30
2019-05-28T20:09:06.060Z,1.85
2019-05-28T20:11:35.071Z,1.80
2019-05-28T20:14:05.657Z,2.40
2019-05-28T20:16:34.784Z,1.93
2019-05-28T20:19:03.788Z,1.70
2019-05-28T20:21:32.672Z,2.65
2019-05-28T20:24:01.786Z,3.27
2019-05-28T20:26:30.647Z,4.45
2019-05-28T20:29:08.640Z,2.00
2019-05-28T20:31:30.245Z,1.55
2019-05-28T20:33:59.145Z,1.50
2019-05-28T20:36:29.178Z,2.30
2019-05-28T20:38:59.534Z,1.90
2019-05-28T20:41:28.624Z,1.57
2019-05-28T20:43:57.563Z,1.32
2019-05-28T20:46:26.501Z,1.80
2019-05-28T20:48:55.384Z,1.80
2019-05-28T20:51:24.311Z,1.70
2019-05-28T20:53:53.248Z,2.33
2019-05-28T20:56:22.869Z,1.90
2019-05-28T20:58:51.921Z,1.70
2019-05-28T21:01:20.931Z,1.60
2019-05-28T21:03:49.814Z,3.05
2019-05-28T21:06:18.821Z,1.80
2019-05-28T21:08:48.090Z,2.58
2019-05-28T21:11:17.187Z,1.60
2019-05-28T21:13:46.077Z,3.87
2019-05-28T21:16:15.068Z,1.50
2019-05-28T21:18:47.214Z,1.80
2019-05-28T21:21:16.112Z,1.55
2019-05-28T21:23:49.966Z,1.52
2019-05-28T21:26:20.686Z,1.72
2019-05-28T21:28:54.250Z,1.60
2019-05-28T21:31:25.220Z,1.72
2019-05-28T21:33:54.948Z,1.90
2019-05-28T21:36:24.083Z,1.90
2019-05-28T21:38:55.179Z,1.57
2019-05-28T21:41:24.351Z,2.40
2019-05-28T21:43:53.830Z,2.00
2019-05-28T21:46:22.804Z,1.80
2019-05-28T21:48:52.361Z,1.80
2019-05-28T21:51:21.418Z,1.70
2019-05-28T21:53:50.269Z,1.60
2019-05-28T21:56:19.407Z,1.75
2019-05-28T21:58:48.536Z,1.77
2019-05-28T22:01:21.167Z,31.37
2019-05-28T22:03:50.086Z,10.00
2019-05-28T22:06:19.230Z,1.60
2019-05-28T22:08:51.690Z,2.40
2019-05-28T22:11:20.814Z,1.50
2019-05-28T22:13:50.061Z,1.80
2019-05-28T22:16:19.055Z,2.47
2019-05-28T22:18:48.242Z,1.70
2019-05-28T22:21:17.332Z,2.10
2019-05-28T22:23:46.294Z,1.50
2019-05-28T22:26:15.544Z,2.40
2019-05-28T22:28:44.503Z,1.30
2019-05-28T22:31:15.040Z,11.22
2019-05-28T22:33:44.470Z,2.05
2019-05-28T22:36:13.637Z,1.50
2019-05-28T22:38:44.323Z,1.60
2019-05-28T22:41:13.156Z,1.50
2019-05-28T22:43:43.003Z,1.70
2019-05-28T22:46:12.108Z,1.60
2019-05-28T22:48:41.064Z,1.80
2019-05-28T22:51:10.140Z,1.60
2019-05-28T22:53:40.336Z,2.10
2019-05-28T22:56:09.701Z,1.60
2019-05-28T22:58:39.217Z,1.40
2019-05-28T23:01:08.836Z,1.70
2019-05-28T23:03:37.753Z,2.75
2019-05-28T23:06:07.311Z,1.85
2019-05-28T23:08:46.955Z,1.70
2019-05-28T23:11:26.597Z,1.40
2019-05-28T23:14:18.550Z,1.55
2019-05-28T23:17:08.470Z,1.70
2019-05-28T23:19:37.521Z,1.70
2019-05-28T23:22:20.437Z,1.80
2019-05-28T23:25:17.606Z,10.20
2019-05-28T23:28:06.322Z,2.00
2019-05-28T23:30:53.348Z,4.20
2019-05-28T23:34:14.613Z,1.92
2019-05-28T23:36:44.213Z,2.00
2019-05-28T23:39:13.280Z,1.50
2019-05-28T23:41:42.291Z,1.90
2019-05-28T23:44:11.688Z,1.90
2019-05-28T23:46:47.086Z,2.10
2019-05-28T23:49:22.609Z,2.02
2019-05-28T23:52:01.296Z,1.80
2019-05-28T23:54:51.561Z,1.70
2019-05-28T23:57:43.272Z,1.60
